createdAt,value
2022-10-23T00:02:16.661Z,3.37
2022-10-23T00:04:53.865Z,3.42
2022-10-23T00:07:47.382Z,3.33
2022-10-23T00:10:37.017Z,3.39
2022-10-23T00:13:18.208Z,3.44
2022-10-23T00:15:57.013Z,3.46
2022-10-23T00:21:22.059Z,3.64
2022-10-23T00:24:00.535Z,3.64
2022-10-23T00:26:40.339Z,3.72
2022-10-23T00:29:38.983Z,3.85
2022-10-23T00:32:18.912Z,3.88
2022-10-23T00:35:08.907Z,3.98
2022-10-23T00:37:51.479Z,4.14
2022-10-23T00:40:38.727Z,4.30
2022-10-23T00:43:26.578Z,4.34
2022-10-23T00:46:20.744Z,4.36
2022-10-23T00:49:06.047Z,4.46
2022-10-23T00:52:06.803Z,4.48
2022-10-23T00:55:05.732Z,4.29
2022-10-23T00:58:00.700Z,4.28
2022-10-23T01:01:01.301Z,4.44
2022-10-23T01:03:48.837Z,4.54
2022-10-23T01:06:41.183Z,4.52
2022-10-23T01:09:47.707Z,4.74
2022-10-23T01:12:42.355Z,5.01
2022-10-23T01:15:50.587Z,5.04
2022-10-23T01:18:32.614Z,4.92
2022-10-23T01:21:50.273Z,4.70
2022-10-23T01:24:45.219Z,4.45
2022-10-23T01:27:34.997Z,4.23
2022-10-23T01:30:33.707Z,4.20
2022-10-23T01:33:20.065Z,4.15
2022-10-23T01:36:09.232Z,3.98
2022-10-23T01:38:55.714Z,4.19
2022-10-23T01:41:56.052Z,4.13
2022-10-23T01:44:56.272Z,3.58
2022-10-23T01:47:45.170Z,4.22
2022-10-23T01:50:36.150Z,4.46
2022-10-23T01:56:23.466Z,5.29
2022-10-23T01:59:02.059Z,5.46
2022-10-23T02:02:08.623Z,5.13
2022-10-23T02:04:58.564Z,5.21
2022-10-23T02:07:45.821Z,5.62
2022-10-23T02:10:33.158Z,5.58
2022-10-23T02:13:37.488Z,5.36
2022-10-23T02:16:36.271Z,5.14
2022-10-23T02:19:31.644Z,5.00
2022-10-23T02:22:33.138Z,4.88
2022-10-23T02:25:44.879Z,4.88
2022-10-23T02:32:32.409Z,5.51
2022-10-23T02:35:43.218Z,5.47
2022-10-23T02:39:05.283Z,5.25
2022-10-23T02:41:51.088Z,4.99
2022-10-23T02:44:51.629Z,4.82
2022-10-23T02:50:50.453Z,4.49
2022-10-23T02:53:47.280Z,5.00
2022-10-23T02:56:30.290Z,5.34
2022-10-23T02:59:23.179Z,5.53
2022-10-23T03:02:07.138Z,5.19
2022-10-23T03:04:59.763Z,4.93
2022-10-23T03:07:51.743Z,4.82
2022-10-23T03:10:36.593Z,4.74
2022-10-23T03:13:18.662Z,4.65
2022-10-23T03:16:08.813Z,4.63
2022-10-23T03:18:47.668Z,4.62
2022-10-23T03:21:31.260Z,4.67
2022-10-23T03:24:18.435Z,4.67
2022-10-23T03:26:55.271Z,4.76
2022-10-23T03:29:49.727Z,4.79
2022-10-23T03:32:37.070Z,4.84
2022-10-23T03:35:14.924Z,5.04
2022-10-23T03:37:58.757Z,5.15
2022-10-23T03:40:39.391Z,5.25
2022-10-23T03:43:16.491Z,5.21
2022-10-23T03:46:02.405Z,5.30
2022-10-23T03:48:42.019Z,5.22
2022-10-23T03:54:45.181Z,5.01
2022-10-23T03:57:42.270Z,4.97
2022-10-23T04:00:31.350Z,4.81
2022-10-23T04:03:11.628Z,4.60
2022-10-23T04:05:52.353Z,4.60
2022-10-23T04:08:32.296Z,4.62
2022-10-23T04:11:16.161Z,4.63
2022-10-23T04:13:54.378Z,4.64
2022-10-23T04:16:35.576Z,4.66
2022-10-23T04:19:28.190Z,4.58
2022-10-23T04:22:24.747Z,4.66
2022-10-23T04:25:20.296Z,4.84
2022-10-23T04:28:21.831Z,5.08
2022-10-23T04:31:03.982Z,5.00
2022-10-23T04:33:44.991Z,4.82
2022-10-23T04:39:44.094Z,4.40
2022-10-23T04:45:30.382Z,4.58
2022-10-23T04:48:13.665Z,4.37
2022-10-23T04:50:50.643Z,4.02
2022-10-23T04:53:41.938Z,4.72
2022-10-23T04:56:33.383Z,4.78
2022-10-23T05:02:10.312Z,4.84
2022-10-23T05:05:03.800Z,4.79
2022-10-23T05:07:54.794Z,4.85
2022-10-23T05:10:31.596Z,4.74
2022-10-23T05:13:34.297Z,4.71
2022-10-23T05:16:53.628Z,4.75
2022-10-23T05:19:56.864Z,4.67
2022-10-23T05:22:57.411Z,4.36
2022-10-23T05:25:43.872Z,4.70
2022-10-23T05:28:31.647Z,4.68
2022-10-23T05:31:31.943Z,4.67
2022-10-23T05:34:20.348Z,4.44
2022-10-23T05:37:08.783Z,4.42
2022-10-23T05:39:46.435Z,4.41
2022-10-23T05:42:31.877Z,4.46
2022-10-23T05:48:22.735Z,4.31
2022-10-23T05:51:14.870Z,4.17
2022-10-23T05:53:53.263Z,3.97
2022-10-23T05:56:41.645Z,4.25
2022-10-23T05:59:29.192Z,4.28
2022-10-23T06:02:45.831Z,4.31
2022-10-23T06:08:28.137Z,4.24
2022-10-23T06:11:06.000Z,4.19
2022-10-23T06:16:48.367Z,4.30
2022-10-23T06:19:45.970Z,4.27
2022-10-23T06:22:27.256Z,4.20
2022-10-23T06:25:06.473Z,4.18
2022-10-23T06:27:43.552Z,4.22
2022-10-23T06:30:55.963Z,4.15
2022-10-23T06:33:35.905Z,4.21
2022-10-23T06:36:57.943Z,4.15
2022-10-23T06:39:53.916Z,4.07
2022-10-23T06:42:36.152Z,4.00
2022-10-23T06:45:26.490Z,3.96
2022-10-23T06:48:07.699Z,3.82
2022-10-23T06:50:47.597Z,3.61
2022-10-23T06:53:28.737Z,3.59
2022-10-23T06:56:23.329Z,3.47
2022-10-23T06:59:04.633Z,3.41
2022-10-23T07:01:43.084Z,3.37
2022-10-23T07:04:19.705Z,3.36
2022-10-23T07:06:59.717Z,3.38
2022-10-23T07:09:46.112Z,3.35
2022-10-23T07:12:23.662Z,3.31
2022-10-23T07:15:01.850Z,3.28
2022-10-23T07:17:41.076Z,3.26
2022-10-23T07:20:34.121Z,2.92
2022-10-23T07:23:11.177Z,3.15
2022-10-23T07:26:12.598Z,3.08
2022-10-23T07:29:01.618Z,3.00
2022-10-23T07:32:13.366Z,2.90
2022-10-23T07:35:29.066Z,2.78
2022-10-23T07:38:40.297Z,2.62
2022-10-23T07:42:00.004Z,2.26
2022-10-23T07:45:15.107Z,1.98
2022-10-23T07:48:27.373Z,1.82
2022-10-23T07:51:56.775Z,1.62
2022-10-23T07:55:43.735Z,1.48
2022-10-23T07:58:59.227Z,1.28
2022-10-23T08:02:15.876Z,1.15
2022-10-23T08:05:39.902Z,1.09
2022-10-23T08:12:23.909Z,0.99
2022-10-23T08:15:37.427Z,1.01
2022-10-23T08:19:06.237Z,1.01
2022-10-23T08:22:19.962Z,0.96
2022-10-23T08:29:06.988Z,0.92
2022-10-23T08:32:16.061Z,0.90
2022-10-23T08:35:33.377Z,0.83
2022-10-23T08:38:47.119Z,0.75
2022-10-23T08:41:58.483Z,0.66
2022-10-23T08:45:18.883Z,0.57
2022-10-23T08:48:45.822Z,0.50
2022-10-23T08:52:08.076Z,0.46
2022-10-23T08:59:13.534Z,0.54
2022-10-23T09:02:37.224Z,0.51
2022-10-23T09:09:33.355Z,0.42
2022-10-23T09:12:56.116Z,0.38
2022-10-23T09:16:14.048Z,0.43
2022-10-23T09:19:34.219Z,0.29
2022-10-23T09:22:44.531Z,0.03
2022-10-23T09:26:07.358Z,0.16
2022-10-23T09:29:26.184Z,0.10
2022-10-23T09:32:37.068Z,0.09
2022-10-23T09:35:56.765Z,0.17
2022-10-23T09:39:22.957Z,0.01
2022-10-23T09:42:08.656Z,0.33
2022-10-23T09:45:12.108Z,0.30
2022-10-23T09:47:58.774Z,0.34
2022-10-23T09:50:53.781Z,0.35
2022-10-23T09:53:50.830Z,0.42
2022-10-23T09:57:19.178Z,0.61
2022-10-23T10:00:24.487Z,0.76
2022-10-23T10:03:12.141Z,0.76
2022-10-23T10:06:32.230Z,0.83
2022-10-23T10:09:37.269Z,0.75
2022-10-23T10:12:59.158Z,0.68
2022-10-23T10:15:42.839Z,0.57
2022-10-23T10:18:36.559Z,0.39
2022-10-23T10:21:32.306Z,0.35
2022-10-23T10:24:30.252Z,0.33
2022-10-23T10:27:31.081Z,0.27
2022-10-23T10:30:17.478Z,0.17
2022-10-23T10:33:26.366Z,0.13
2022-10-23T10:36:14.993Z,-0.19
2022-10-23T10:39:00.376Z,-0.04
2022-10-23T10:41:55.107Z,0.01
2022-10-23T10:44:46.984Z,-0.06
2022-10-23T10:47:52.222Z,-0.30
2022-10-23T10:50:38.757Z,-0.35
2022-10-23T10:53:27.244Z,-0.81
2022-10-23T10:56:19.370Z,-0.37
2022-10-23T10:59:11.214Z,-0.66
2022-10-23T11:01:53.540Z,-0.48
2022-10-23T11:07:52.710Z,-0.54
2022-10-23T11:13:34.602Z,-0.76
2022-10-23T11:16:21.791Z,-0.65
2022-10-23T11:19:14.165Z,-0.61
2022-10-23T11:22:07.744Z,-0.66
2022-10-23T11:29:14.049Z,-0.83
2022-10-23T11:32:14.599Z,-0.90
2022-10-23T11:43:04.735Z,-1.05
2022-10-23T11:46:00.043Z,-1.04
2022-10-23T11:49:32.707Z,-1.07
2022-10-23T11:52:30.251Z,-1.15
2022-10-23T11:55:26.230Z,-1.26
2022-10-23T11:58:45.225Z,-1.26
2022-10-23T12:02:05.194Z,-1.22
2022-10-23T12:04:55.116Z,-1.25
2022-10-23T12:07:46.323Z,-1.28
2022-10-23T12:14:09.024Z,-1.40
2022-10-23T12:17:04.166Z,-1.31
2022-10-23T12:23:35.782Z,-1.42
2022-10-23T12:26:38.769Z,-1.56
2022-10-23T12:29:30.509Z,-1.65
2022-10-23T12:32:26.967Z,-1.61
2022-10-23T12:38:41.375Z,-1.80
2022-10-23T12:41:43.870Z,-2.39
2022-10-23T12:44:23.531Z,-1.88
2022-10-23T12:47:07.409Z,-1.91
2022-10-23T12:49:56.527Z,-1.95
2022-10-23T12:52:41.922Z,-2.30
2022-10-23T12:55:53.625Z,-2.07
2022-10-23T12:58:37.345Z,-2.06
2022-10-23T13:04:25.520Z,-1.99
2022-10-23T13:07:21.590Z,-1.95
2022-10-23T13:10:17.832Z,-1.90
2022-10-23T13:13:04.757Z,-2.11
2022-10-23T13:16:04.681Z,-1.87
2022-10-23T13:18:48.245Z,-1.85
2022-10-23T13:21:33.019Z,-1.88
2022-10-23T13:24:28.862Z,-1.81
2022-10-23T13:27:05.090Z,-2.17
2022-10-23T13:29:49.641Z,-1.85
2022-10-23T13:32:37.184Z,-1.85
2022-10-23T13:35:40.886Z,-1.88
2022-10-23T13:38:19.029Z,-1.90
2022-10-23T13:41:10.271Z,-1.88
2022-10-23T13:44:02.497Z,-1.89
2022-10-23T13:49:24.568Z,-1.87
2022-10-23T13:52:27.642Z,-1.96
2022-10-23T13:55:15.119Z,-2.04
2022-10-23T13:57:54.494Z,-2.10
2022-10-23T14:00:29.892Z,-2.17
2022-10-23T14:03:17.915Z,-2.23
2022-10-23T14:06:12.624Z,-2.19
2022-10-23T14:08:47.348Z,-2.19
2022-10-23T14:11:27.479Z,-2.23
2022-10-23T14:14:05.566Z,-2.14
2022-10-23T14:16:46.773Z,-2.46
2022-10-23T14:22:41.127Z,-2.26
2022-10-23T14:25:36.668Z,-2.32
2022-10-23T14:28:30.913Z,-2.35
2022-10-23T14:37:23.355Z,-2.18
2022-10-23T14:40:13.703Z,-2.25
2022-10-23T14:42:55.677Z,-2.37
2022-10-23T14:45:35.880Z,-2.43
2022-10-23T14:48:12.550Z,-2.68
2022-10-23T14:51:13.697Z,-2.41
2022-10-23T14:54:16.198Z,-2.46
2022-10-23T14:59:46.549Z,-2.74
2022-10-23T15:02:27.234Z,-2.74
2022-10-23T15:05:18.520Z,-2.75
2022-10-23T15:08:10.415Z,-2.74
2022-10-23T15:10:55.851Z,-2.78
2022-10-23T15:13:39.558Z,-2.75
2022-10-23T15:16:35.560Z,-2.73
2022-10-23T15:19:18.730Z,-2.65
2022-10-23T15:22:17.199Z,-2.57
2022-10-23T15:24:59.904Z,-2.61
2022-10-23T15:27:43.167Z,-2.65
2022-10-23T15:30:36.911Z,-2.62
2022-10-23T15:33:19.166Z,-2.59
2022-10-23T15:36:09.549Z,-2.65
2022-10-23T15:39:00.797Z,-2.74
2022-10-23T15:41:53.440Z,-2.86
2022-10-23T15:44:36.560Z,-3.06
2022-10-23T15:47:15.336Z,-2.81
2022-10-23T15:50:01.726Z,-2.88
2022-10-23T15:52:59.587Z,-2.86
2022-10-23T15:55:44.168Z,-2.83
2022-10-23T16:14:10.282Z,-2.86
2022-10-23T16:16:47.343Z,-2.83
2022-10-23T16:22:41.289Z,-2.63
2022-10-23T16:25:36.114Z,-2.46
2022-10-23T16:28:18.520Z,-2.41
2022-10-23T16:31:09.174Z,-2.26
2022-10-23T16:36:47.042Z,-2.21
2022-10-23T16:39:27.660Z,-2.23
2022-10-23T16:45:03.056Z,-2.15
2022-10-23T16:50:53.785Z,-2.20
2022-10-23T16:53:36.472Z,-2.26
2022-10-23T16:56:20.157Z,-2.52
2022-10-23T16:59:05.955Z,-2.18
2022-10-23T17:01:50.948Z,-2.11
2022-10-23T17:04:40.004Z,-2.10
2022-10-23T17:07:51.916Z,-2.13
2022-10-23T17:10:36.260Z,-2.18
2022-10-23T17:13:22.931Z,-2.18
2022-10-23T17:19:08.372Z,-2.12
2022-10-23T17:21:50.454Z,-2.17
2022-10-23T17:24:37.068Z,-2.01
2022-10-23T17:27:31.315Z,-1.96
2022-10-23T17:30:42.535Z,-1.90
2022-10-23T17:33:22.085Z,-1.93
2022-10-23T17:36:01.949Z,-2.00
2022-10-23T18:26:57.726Z,-2.43
2022-10-23T18:29:47.197Z,-2.51
2022-10-23T18:33:14.186Z,-2.55
2022-10-23T18:35:57.715Z,-2.51
2022-10-23T18:38:46.335Z,-2.52
2022-10-23T18:41:34.064Z,-2.52
2022-10-23T18:44:34.377Z,-2.52
2022-10-23T18:47:24.670Z,-2.53
2022-10-23T18:50:11.637Z,-2.52
2022-10-23T18:53:08.696Z,-2.55
2022-10-23T18:55:51.973Z,-2.52
2022-10-23T18:58:40.779Z,-2.48
2022-10-23T19:01:32.665Z,-2.39
2022-10-23T19:04:17.999Z,-2.47
2022-10-23T19:07:02.475Z,-2.65
2022-10-23T19:09:56.696Z,-2.38
2022-10-23T19:12:45.173Z,-2.45
2022-10-23T19:15:35.310Z,-2.49
2022-10-23T19:18:38.231Z,-2.54
2022-10-23T19:21:22.129Z,-2.61
2022-10-23T19:24:05.076Z,-3.18
2022-10-23T19:26:55.093Z,-2.70
2022-10-23T19:29:34.266Z,-2.76
2022-10-23T19:32:18.040Z,-2.87
2022-10-23T19:35:03.942Z,-2.81
2022-10-23T19:37:47.496Z,-2.79
2022-10-23T19:40:39.577Z,-2.83
2022-10-23T19:43:50.915Z,-2.86
2022-10-23T19:46:43.458Z,-2.85
2022-10-23T19:49:44.836Z,-2.87
2022-10-23T19:52:50.779Z,-2.93
2022-10-23T19:55:41.062Z,-3.06
2022-10-23T19:58:29.502Z,-3.00
2022-10-23T20:01:35.005Z,-3.02
2022-10-23T20:04:52.357Z,-2.99
2022-10-23T20:07:35.731Z,-2.97
2022-10-23T20:10:27.894Z,-2.91
2022-10-23T20:13:22.829Z,-2.94
2022-10-23T20:16:07.996Z,-2.90
2022-10-23T20:19:04.102Z,-2.96
2022-10-23T20:21:51.161Z,-2.84
2022-10-23T20:24:45.165Z,-2.74
2022-10-23T20:27:21.378Z,-2.63
2022-10-23T20:30:06.576Z,-2.52
2022-10-23T20:32:48.295Z,-2.43
2022-10-23T20:35:25.766Z,-2.34
2022-10-23T20:38:06.712Z,-2.21
2022-10-23T20:40:58.567Z,-2.13
2022-10-23T20:43:42.411Z,-2.11
2022-10-23T20:49:39.849Z,-2.00
2022-10-23T20:52:21.553Z,-1.88
2022-10-23T20:55:15.634Z,-1.87
2022-10-23T20:58:01.003Z,-1.80
2022-10-23T21:00:47.227Z,-1.79
2022-10-23T21:03:26.991Z,-1.68
2022-10-23T21:06:12.031Z,-1.68
2022-10-23T21:08:58.012Z,-1.72
2022-10-23T21:11:46.944Z,-1.59
2022-10-23T21:14:21.688Z,-1.52
2022-10-23T21:17:18.498Z,-1.56
2022-10-23T21:19:57.249Z,-1.59
2022-10-23T21:23:00.493Z,-1.50
2022-10-23T21:29:13.743Z,-1.43
2022-10-23T21:32:18.339Z,-1.43
2022-10-23T21:35:25.350Z,-1.40
2022-10-23T21:38:34.291Z,-1.40
2022-10-23T21:41:17.370Z,-1.36
2022-10-23T21:44:14.649Z,-1.34
2022-10-23T21:50:17.813Z,-1.36
2022-10-23T21:53:44.546Z,-1.34
2022-10-23T21:56:34.697Z,-1.29
2022-10-23T21:59:29.120Z,-1.23
2022-10-23T22:02:23.966Z,-1.20
2022-10-23T22:04:58.815Z,-1.06
2022-10-23T22:07:40.229Z,-1.11
2022-10-23T22:10:31.424Z,-1.09
2022-10-23T22:13:12.832Z,-1.01
2022-10-23T22:18:57.790Z,-0.94
2022-10-23T22:21:42.651Z,-0.85
2022-10-23T22:24:20.442Z,-0.74
2022-10-23T22:27:19.340Z,-0.94
2022-10-23T22:30:14.811Z,-1.35
2022-10-23T22:32:52.442Z,-0.64
2022-10-23T22:35:30.238Z,-0.64
2022-10-23T22:38:14.762Z,-0.61
2022-10-23T22:41:03.789Z,-0.56
2022-10-23T22:43:37.192Z,-0.53
2022-10-23T22:46:36.832Z,-0.51
2022-10-23T22:49:27.431Z,-0.46
2022-10-23T22:52:25.339Z,-0.39
2022-10-23T22:55:03.232Z,-0.37
2022-10-23T22:57:57.125Z,-0.34
2022-10-23T23:00:47.113Z,-0.34
2022-10-23T23:03:32.241Z,-0.28
2022-10-23T23:06:38.136Z,-0.26
2022-10-23T23:09:20.556Z,-0.01
2022-10-23T23:12:14.089Z,0.16
2022-10-23T23:14:59.128Z,0.34
2022-10-23T23:20:52.011Z,0.30
2022-10-23T23:23:34.758Z,0.26
2022-10-23T23:26:25.017Z,0.19
2022-10-23T23:29:18.310Z,0.21
2022-10-23T23:32:06.772Z,0.24
2022-10-23T23:35:12.776Z,0.31
2022-10-23T23:37:58.917Z,0.42
2022-10-23T23:41:05.853Z,0.53
2022-10-23T23:43:43.951Z,0.41
2022-10-23T23:46:31.657Z,0.83
2022-10-23T23:49:10.206Z,1.01
2022-10-23T23:52:03.211Z,1.20
2022-10-23T23:54:56.762Z,1.08
2022-10-23T23:57:37.077Z,1.42
